Huber Heights, Ohio
Current Conditions -  °F | °C
As of 7:58 AM on Wednesday 22 Oct 2014 (Local Time) from KFFO Reporting Station
Overcast Overcast  
Wind Chill: 39°   Ceiling: 2700
Heat Index: 44°   Visibility: 10mi
Dew Point: 39°   Wind: 8mph
Humidity: 85%   Direction: 350°N
Pressure: 30.26"   Gusts: NA
Location:  39.8476°N, 84.1086°W
Report Text: KFFO 221158Z AUTO 35007KT 10SM OVC027 06/04 A3026 RMK AO2 SLP254 70001 T00640041 10071 20059 52016
Loading
Personal Weather Stations






























Interactive Weather Map
Tropical Storm Tracking
New forecast layout! Learn more

10-Day Weather Forecast

Advertisements
Track Severe Weather on mobile